| time (UTC) | temp C | wind direction | speed KPH | gust KPH | rain 1hr cm | rain 24hr cm | rain mn cm | humidity % | barometer mb |
| 20260505153007 | 7 | 269 | 3.2 | 16.1 | 0.00 | 0.00 | 0.00 | 45 | 1011.2 |
| 20260505151502 | 6 | 345 | 6.4 | 20.9 | 0.00 | 0.00 | 0.00 | 46 | 1010.7 |
| 20260505124533 | -17 | 0.0 | 0.0 | 0.00 | 0.00 | 0.00 | 1009.4 | ||
| 20260505123026 | -17 | 0.0 | 0.0 | 0.00 | 0.00 | 0.00 | 1009.1 | ||
| 20260505121523 | -17 | 0.0 | 0.0 | 0.00 | 0.00 | 0.00 | 1009.6 | ||
| 20260505120018 | -17 | 0.0 | 0.0 | 0.00 | 0.00 | 0.00 | 1009.0 | ||
| 20260505114513 | -17 | 0.0 | 0.0 | 0.00 | 0.00 | 0.00 | 1008.8 | ||
| 20260505113008 | -17 | 0.0 | 0.0 | 0.00 | 0.00 | 0.00 | 1009.0 | ||
| 20260505111503 | -17 | 0.0 | 0.0 | 0.00 | 0.00 | 0.00 | 1008.4 | ||
| 20260505101558 | 2 | 295 | 0.0 | 6.4 | 0.00 | 0.00 | 0.00 | 69 | 1008.1 |
| 20260505100055 | 2 | 330 | 1.6 | 9.7 | 0.00 | 0.00 | 0.00 | 68 | 1007.9 |
| 20260505094559 | 2 | 354 | 3.2 | 9.7 | 0.00 | 0.00 | 0.00 | 67 | 1007.9 |
| 20260505093055 | 2 | 298 | 1.6 | 9.7 | 0.00 | 0.00 | 0.00 | 68 | 1008.1 |
| 20260505091546 | 3 | 272 | 0.0 | 6.4 | 0.00 | 0.00 | 0.00 | 67 | 1007.7 |
| 20260505090044 | 3 | 290 | 0.0 | 8.0 | 0.00 | 0.00 | 0.00 | 66 | 1007.4 |
| 20260505084542 | 3 | 347 | 0.0 | 9.7 | 0.00 | 0.00 | 0.00 | 65 | 1007.6 |
| 20260505083050 | 3 | 10 | 3.2 | 9.7 | 0.00 | 0.00 | 0.00 | 64 | 1007.0 |
| 20260505081538 | 3 | 274 | 0.0 | 8.0 | 0.00 | 0.00 | 0.00 | 63 | 1007.0 |
| 20260505080035 | 3 | 305 | 0.0 | 6.4 | 0.00 | 0.00 | 0.00 | 62 | 1006.5 |
| 20260505074534 | 4 | 307 | 0.0 | 8.0 | 0.00 | 0.00 | 0.00 | 61 | 1006.7 |
| 20260505073032 | 4 | 321 | 0.0 | 8.0 | 0.00 | 0.00 | 0.00 | 59 | 1007.1 |
| 20260505071529 | 4 | 297 | 0.0 | 4.8 | 0.00 | 0.00 | 0.00 | 58 | 1006.5 |
| 20260505070028 | 5 | 314 | 0.0 | 9.7 | 0.00 | 0.00 | 0.00 | 57 | 1006.5 |
| 20260505064524 | 5 | 285 | 0.0 | 8.0 | 0.00 | 0.00 | 0.00 | 56 | 1006.4 |
| 20260505063022 | 5 | 274 | 0.0 | 8.0 | 0.00 | 0.00 | 0.00 | 54 | 1006.4 |
| 20260505061522 | 5 | 285 | 0.0 | 9.7 | 0.00 | 0.00 | 0.00 | 53 | 1006.8 |
| 20260505060019 | 5 | 301 | 1.6 | 9.7 | 0.00 | 0.00 | 0.00 | 53 | 1006.3 |
| 20260505054516 | 6 | 341 | 3.2 | 9.7 | 0.00 | 0.00 | 0.00 | 52 | 1006.1 |
| 20260505053015 | 6 | 339 | 0.0 | 11.3 | 0.00 | 0.00 | 0.00 | 52 | 1006.6 |
| 20260505051510 | 6 | 30 | 0.0 | 9.7 | 0.00 | 0.00 | 0.00 | 51 | 1006.0 |
| 20260505041503 | 6 | 356 | 0.0 | 3.2 | 0.00 | 0.00 | 0.00 | 51 | 1006.1 |
| 20260505040005 | 6 | 283 | 0.0 | 3.2 | 0.00 | 0.00 | 0.00 | 51 | 1005.7 |
| 20260505034501 | 6 | 341 | 0.0 | 6.4 | 0.00 | 0.00 | 0.00 | 51 | 1005.6 |
| 20260505033104 | 6 | 315 | 0.0 | 4.8 | 0.00 | 0.00 | 0.00 | 52 | 1005.9 |
| 20260505031558 | 6 | 314 | 0.0 | 3.2 | 0.00 | 0.00 | 0.00 | 51 | 1005.5 |
| 20260505030055 | 6 | 289 | 0.0 | 1.6 | 0.00 | 0.00 | 0.00 | 50 | 1005.6 |
| 20260505024553 | 6 | 37 | 0.0 | 0.0 | 0.00 | 0.00 | 0.00 | 49 | 1005.7 |
| 20260505023048 | 7 | 293 | 0.0 | 4.8 | 0.00 | 0.00 | 0.00 | 46 | 1005.1 |
| 20260505021545 | 7 | 291 | 0.0 | 3.2 | 0.00 | 0.00 | 0.00 | 45 | 1005.4 |
| 20260505020043 | 8 | 330 | 0.0 | 6.4 | 0.00 | 0.00 | 0.00 | 44 | 1005.2 |
| 20260505014542 | 8 | 313 | 0.0 | 9.7 | 0.00 | 0.00 | 0.00 | 42 | 1004.6 |
| 20260505013038 | 8 | 311 | 1.6 | 11.3 | 0.00 | 0.00 | 0.00 | 41 | 1004.8 |
| 20260505011538 | 8 | 281 | 1.6 | 12.9 | 0.00 | 0.00 | 0.00 | 41 | 1004.5 |
| 20260505010033 | 8 | 342 | 3.2 | 11.3 | 0.00 | 0.00 | 0.00 | 41 | 1003.9 |
| 20260505004630 | 9 | 310 | 6.4 | 29.0 | 0.00 | 0.00 | 0.00 | 41 | 1004.3 |
| 20260505003028 | 9 | 297 | 8.0 | 16.1 | 0.00 | 0.00 | 0.00 | 43 | 1004.2 |
| 20260505001525 | 10 | 311 | 6.4 | 17.7 | 0.00 | 0.00 | 0.00 | 41 | 1003.6 |
| 20260505000036 | 10 | 281 | 6.4 | 19.3 | 0.00 | 0.00 | 0.00 | 40 | 1003.3 |
| 20260504234518 | 11 | 309 | 9.7 | 22.5 | 0.00 | 0.00 | 0.00 | 38 | 1003.5 |
| 20260504233017 | 11 | 343 | 6.4 | 27.4 | 0.00 | 0.00 | 0.00 | 39 | 1003.2 |
| 20260504231512 | 11 | 38 | 9.7 | 24.1 | 0.00 | 0.00 | 0.00 | 38 | 1002.9 |
| 20260504230010 | 11 | 316 | 6.4 | 17.7 | 0.00 | 0.00 | 0.00 | 39 | 1002.8 |
| 20260504224507 | 12 | 333 | 9.7 | 25.7 | 0.00 | 0.00 | 0.00 | 36 | 1002.6 |
| 20260504223005 | 12 | 298 | 9.7 | 25.7 | 0.00 | 0.00 | 0.00 | 36 | 1002.3 |
| 20260504221503 | 12 | 352 | 9.7 | 25.7 | 0.00 | 0.00 | 0.00 | 36 | 1002.0 |
| 20260504220001 | 12 | 312 | 4.8 | 25.7 | 0.00 | 0.00 | 0.00 | 38 | 1001.9 |
| 20260504214601 | 12 | 281 | 9.7 | 27.4 | 0.00 | 0.00 | 0.00 | 38 | 1001.7 |
| 20260504213110 | 12 | 342 | 6.4 | 17.7 | 0.00 | 0.00 | 0.00 | 40 | 1001.5 |
| 20260504211556 | 13 | 305 | 6.4 | 25.7 | 0.00 | 0.00 | 0.00 | 38 | 1000.7 |
| 20260504210052 | 13 | 360 | 11.3 | 29.0 | 0.00 | 0.00 | 0.00 | 38 | 1000.7 |
| 20260504204600 | 13 | 359 | 9.7 | 22.5 | 0.00 | 0.00 | 0.00 | 42 | 1000.4 |
| 20260504203050 | 13 | 338 | 8.0 | 27.4 | 0.00 | 0.00 | 0.00 | 42 | 1000.2 |
| 20260504201549 | 13 | 352 | 11.3 | 29.0 | 0.00 | 0.00 | 0.00 | 40 | 1000.2 |
| 20260504200050 | 15 | 8 | 12.9 | 32.2 | 0.00 | 0.00 | 0.00 | 39 | 1000.1 |
| 20260504194549 | 15 | 316 | 11.3 | 25.7 | 0.00 | 0.00 | 0.00 | 38 | 999.9 |
| 20260504193106 | 15 | 342 | 12.9 | 27.4 | 0.00 | 0.00 | 0.00 | 38 | 999.7 |
| 20260504191553 | 15 | 280 | 8.0 | 16.1 | 0.00 | 0.00 | 0.00 | 40 | 999.4 |
| 20260504190059 | 14 | 45 | 8.0 | 29.0 | 0.00 | 0.00 | 0.00 | 42 | 999.1 |
| 20260504184549 | 15 | 311 | 8.0 | 22.5 | 0.00 | 0.00 | 0.00 | 42 | 998.8 |
| 20260504183058 | 15 | 353 | 9.7 | 22.5 | 0.00 | 0.00 | 0.00 | 41 | 998.9 |
| 20260504181650 | 14 | 274 | 8.0 | 24.1 | 0.00 | 0.00 | 0.00 | 44 | 998.5 |
| 20260504180117 | 15 | 343 | 8.0 | 24.1 | 0.00 | 0.00 | 0.00 | 41 | 998.7 |
| 20260504174545 | 15 | 309 | 11.3 | 24.1 | 0.00 | 0.00 | 0.00 | 40 | 998.5 |
| 20260504173046 | 15 | 326 | 9.7 | 27.4 | 0.00 | 0.00 | 0.00 | 38 | 998.4 |
| 20260504171548 | 15 | 344 | 9.7 | 24.1 | 0.00 | 0.00 | 0.00 | 37 | 998.3 |